Latest Weather Observations for Coonawarra

IDS60801

Issued at 3:05 pm CST Wednesday 23 July 2014 (issued every 30 minutes, with the page automatically refreshed every 10 minutes)

About weather observations | Map of weather stations | Latest weather observations for SA | Other Formats
Station Details ID: 026091 Name: COONAWARRA Lat: -37.29 Lon: 140.83 Height: 57.0 m
Data from the previous 72 hours. | See also: Recent months at Coonawarra
Date/Time
CST
Temp
°C
App
Temp
°C
Dew
Point
Rel
Hum
%
Delta-T
°C
Wind Press
QNH
hPa
Press
MSL
hPa
Rain
since 9 am
mm
Dir
 
Spd
km/h
Gust
km/h
Spd
kts
Gust
kts
23/03:00pm 11.0 6.7 5.1 67 2.7 NE 17 22 9 12 1017.3 1017.4 0.0
23/02:30pm 11.4 6.7 5.1 65 2.9 NE 19 26 10 14 1017.4 1017.5 0.0
23/02:00pm 10.5 5.4 4.2 65 2.8 NE 20 28 11 15 1017.4 - 0.0
23/01:30pm 10.1 5.1 4.5 68 2.5 NE 20 30 11 16 1017.8 1017.9 0.0
23/01:00pm 10.0 4.9 3.3 63 2.9 NNE 19 28 10 15 1018.4 - 0.0
23/12:30pm 9.7 4.7 3.8 66 2.6 NE 19 26 10 14 1018.9 1019.0 0.0
23/12:00pm 9.6 4.6 4.4 70 2.3 NE 20 26 11 14 1019.5 1019.6 0.0
23/11:30am 9.1 4.4 5.1 76 1.8 NE 19 26 10 14 1019.9 1020.0 0.0
23/11:00am 9.2 3.5 5.0 75 1.9 NE 24 33 13 18 1020.6 - 0.0
23/10:30am 8.3 3.0 5.2 81 1.4 NE 22 32 12 17 1020.8 1020.9 0.0
23/10:00am 8.1 3.8 5.4 83 1.2 NE 17 22 9 12 1021.3 - 0.0
23/09:30am 7.7 3.5 5.5 86 1.0 NNE 17 24 9 13 1021.5 1021.6 0.0
23/09:00am 7.0 3.1 5.2 88 0.8 NE 15 20 8 11 1021.8 1021.9 0.0
23/08:30am 5.8 2.1 4.4 91 0.6 NE 13 19 7 10 1021.8 1021.9 0.0
23/08:00am 4.8 0.6 3.8 93 0.4 NE 15 19 8 10 1022.2 - 0.0
23/07:30am 3.0 -0.4 2.0 93 0.4 NE 9 13 5 7 1022.2 1022.3 0.0
23/07:00am 2.2 -1.2 1.9 98 0.1 ENE 9 11 5 6 1022.1 - 0.0
23/06:30am 0.5 -2.8 -0.1 96 0.2 ENE 7 9 4 5 1022.1 1022.2 0.0
23/06:00am 0.4 -2.9 -0.1 96 0.2 E 7 7 4 4 1022.1 1022.2 0.0
23/05:30am 0.4 - - - - E 6 7 3 4 1021.9 1022.0 0.0
23/05:00am 2.0 -1.1 1.5 96 0.2 E 7 9 4 5 1022.0 - 0.0
23/04:30am 2.1 -1.0 1.3 94 0.3 E 7 9 4 5 1021.8 1021.9 0.0
23/04:00am 2.7 -0.6 2.2 96 0.2 NE 9 11 5 6 1022.0 - 0.0
23/03:30am 1.5 -2.1 0.7 94 0.3 NNE 9 9 5 5 1022.2 1022.3 0.0
23/03:00am 0.6 -2.6 -0.2 94 0.3 ENE 6 7 3 4 1022.4 1022.5 0.0
23/02:30am 1.9 -1.5 1.9 100 0.0 ENE 9 11 5 6 1022.4 1022.5 0.0
23/02:00am 1.9 -1.7 0.6 91 0.5 ENE 9 9 5 5 1022.5 - 0.0
23/01:30am 1.7 -1.4 1.2 96 0.2 E 7 9 4 5 1022.6 1022.7 0.0
23/01:00am 2.0 -1.1 1.5 96 0.2 E 7 9 4 5 1022.7 - 0.0
23/12:30am 3.1 -0.2 2.3 94 0.3 E 9 9 5 5 1022.8 1022.9 0.0
23/12:00am 3.7 0.9 3.0 95 0.3 E 7 9 4 5 1023.0 1023.1 0.0
 
Date/Time
CST
Temp
°C
App
Temp
°C
Dew
Point
Rel
Hum
%
Delta-T
°C
Wind Press
QNH
hPa
Press
MSL
hPa
Rain
since 9 am
mm
Dir
 
Spd
km/h
Gust
km/h
Spd
kts
Gust
kts
22/11:30pm 4.4 1.7 3.7 95 0.3 E 7 9 4 5 1023.1 1023.3 0.0
22/11:00pm 4.5 1.4 3.8 95 0.3 ENE 9 11 5 6 1023.4 - 0.0
22/10:30pm 4.4 1.2 3.2 92 0.5 E 9 9 5 5 1023.8 1023.9 0.0
22/10:00pm 5.2 2.5 3.8 91 0.6 E 7 9 4 5 1024.0 - 0.0
22/09:30pm 5.6 3.0 4.2 91 0.6 ENE 7 9 4 5 1024.2 1024.3 0.0
22/09:00pm 6.2 2.9 4.6 89 0.7 ENE 11 13 6 7 1024.1 1024.2 0.0
22/08:30pm 5.3 1.9 4.1 92 0.5 ENE 11 13 6 7 1024.2 1024.3 0.0
22/08:00pm 5.9 2.6 4.7 92 0.5 ENE 11 13 6 7 1024.2 - 0.0
22/07:30pm 6.0 3.4 4.1 88 0.8 E 7 9 4 5 1024.0 1024.1 0.0
22/07:00pm 6.5 3.8 3.9 83 1.1 E 7 9 4 5 1023.8 - 0.0
22/06:30pm 7.6 5.1 4.6 81 1.3 E 7 7 4 4 1024.0 1024.1 0.0
22/06:00pm 8.8 6.3 4.5 74 1.9 ENE 7 9 4 5 1023.8 1023.9 0.0
22/05:30pm 10.4 7.9 4.6 67 2.6 NE 7 7 4 4 1023.7 1023.8 0.0
22/05:00pm 12.4 9.9 4.5 58 3.6 NNE 7 9 4 5 1023.4 - 0.0
22/04:30pm 13.4 10.4 3.9 52 4.3 NNE 9 11 5 6 1023.3 1023.5 0.0
22/04:00pm 13.8 10.8 3.9 51 4.5 NE 9 13 5 7 1023.2 - 0.0
22/03:30pm 14.2 11.0 3.3 48 4.9 NE 9 13 5 7 1023.2 1023.4 0.0
22/03:00pm 14.6 12.0 4.1 49 4.8 N 7 11 4 6 1023.3 1023.5 0.0
22/02:30pm 14.2 11.6 4.1 50 4.6 N 7 13 4 7 1023.3 1023.5 0.0
22/02:00pm 14.0 11.0 3.9 50 4.6 N 9 17 5 9 1023.4 - 0.0
22/01:30pm 13.9 10.3 4.8 54 4.2 N 13 17 7 9 1023.9 1024.0 0.0
22/01:00pm 13.3 9.4 3.5 51 4.4 N 13 20 7 11 1024.1 - 0.0
22/12:30pm 13.2 9.8 4.2 54 4.1 N 11 17 6 9 1024.5 1024.6 0.0
22/12:00pm 12.6 9.3 4.7 58 3.6 N 11 13 6 7 1025.0 1025.1 0.0
22/11:30am 12.0 8.3 4.7 61 3.3 N 13 17 7 9 1025.5 1025.6 0.0
22/11:00am 11.1 7.7 5.7 69 2.5 NNE 13 17 7 9 1025.9 - 0.0
22/10:30am 10.5 7.0 5.5 71 2.3 NNE 13 19 7 10 1026.2 1026.3 0.0
22/10:00am 9.3 5.9 5.8 79 1.6 NNE 13 19 7 10 1026.4 - 0.0
22/09:30am 8.1 4.2 5.2 82 1.3 NNE 15 20 8 11 1026.5 1026.6 0.0
22/09:00am 7.0 4.3 5.4 89 0.7 NNE 9 13 5 7 1026.4 1026.5 0.2
22/08:30am 5.2 2.3 4.5 95 0.3 NNE 9 13 5 7 1026.2 1026.3 0.2
22/08:00am 3.5 0.3 3.3 99 0.1 NNE 9 9 5 5 1026.2 - 0.0
22/07:30am 0.1 - - - - NNE 9 9 5 5 1026.1 1026.2 0.0
22/07:00am 0.2 - - - - CALM 0 4 0 2 1025.8 - 0.0
22/06:30am -0.1 - - - - NE 7 9 4 5 1025.3 1025.4 0.0
22/06:00am 0.6 -2.6 0.6 100 0.0 ENE 7 9 4 5 1025.2 1025.3 0.0
22/05:30am 1.2 -2.4 0.9 98 0.1 ENE 9 9 5 5 1024.9 1025.0 0.0
22/05:00am 0.4 -3.2 0.4 100 0.0 ENE 9 9 5 5 1024.8 - 0.0
22/04:30am 1.2 -1.9 1.2 100 0.0 ENE 7 9 4 5 1024.7 1024.8 0.0
22/04:00am 2.3 -1.5 2.0 98 0.1 NE 11 13 6 7 1024.7 - 0.0
22/03:30am 0.7 -1.2 0.4 98 0.1 CALM 0 0 0 0 1024.6 1024.7 0.0
22/03:00am 0.4 -2.0 -0.1 96 0.2 ENE 2 6 1 3 1024.5 1024.6 0.0
22/02:30am 1.4 -1.8 0.6 94 0.3 ENE 7 7 4 4 1024.4 1024.5 0.0
22/02:00am 1.3 -1.9 1.0 98 0.1 ENE 7 9 4 5 1024.3 - 0.0
22/01:30am 2.1 -1.0 1.6 96 0.2 ENE 7 9 4 5 1024.5 1024.6 0.0
22/01:00am 2.9 0.0 1.6 91 0.5 NE 6 9 3 5 1024.4 - 0.0
22/12:30am 3.7 1.0 2.4 91 0.5 ENE 6 7 3 4 1024.5 1024.6 0.0
22/12:00am 4.4 1.3 3.4 93 0.4 ENE 9 11 5 6 1024.7 1024.8 0.0
 
Date/Time
CST
Temp
°C
App
Temp
°C
Dew
Point
Rel
Hum
%
Delta-T
°C
Wind Press
QNH
hPa
Press
MSL
hPa
Rain
since 9 am
mm
Dir
 
Spd
km/h
Gust
km/h
Spd
kts
Gust
kts
21/11:30pm 5.3 2.2 3.6 89 0.7 ENE 9 13 5 7 1024.8 1024.9 0.0
21/11:00pm 5.8 1.6 3.9 88 0.8 ENE 15 17 8 9 1024.6 - 0.0
21/10:30pm 5.6 2.2 4.2 91 0.6 ENE 11 13 6 7 1024.7 1024.8 0.0
21/10:00pm 6.2 2.5 4.3 88 0.8 ENE 13 15 7 8 1024.5 - 0.0
21/09:30pm 6.3 3.0 4.7 89 0.7 ENE 11 11 6 6 1024.7 1024.8 0.0
21/09:00pm 6.9 4.5 5.3 89 0.7 NE 7 9 4 5 1024.8 1024.9 0.0
21/08:30pm 7.5 4.4 5.5 87 0.9 ENE 11 13 6 7 1024.5 1024.6 0.0
21/08:00pm 7.7 4.6 5.7 87 0.9 ENE 11 13 6 7 1024.4 - 0.0
21/07:30pm 7.8 4.8 5.8 87 0.9 ENE 11 13 6 7 1024.1 1024.2 0.0
21/07:00pm 7.5 5.2 5.9 90 0.7 E 7 9 4 5 1024.2 - 0.0
21/06:30pm 7.2 4.9 5.6 89 0.7 ESE 7 9 4 5 1024.0 1024.1 0.0
21/06:00pm 7.7 5.4 5.5 86 1.0 ESE 7 9 4 5 1023.7 1023.8 0.0
21/05:30pm 9.0 6.7 5.9 81 1.4 E 7 9 4 5 1023.3 1023.5 0.0
21/05:00pm 9.9 7.3 6.0 77 1.8 ENE 9 11 5 6 1023.0 - 0.0
21/04:30pm 10.7 7.7 6.2 74 2.1 ENE 11 15 6 8 1022.8 1022.9 0.0
21/04:00pm 11.2 7.8 6.0 70 2.4 NE 13 17 7 9 1022.9 - 0.0
21/03:30pm 11.7 9.2 6.4 70 2.5 NNE 9 15 5 8 1023.0 1023.1 0.0
21/03:00pm 11.6 8.3 6.5 71 2.4 NE 13 17 7 9 1022.9 1023.0 0.0
21/02:30pm 11.7 8.4 6.4 70 2.5 NE 13 19 7 10 1022.9 1023.0 0.0
21/02:00pm 11.5 8.2 6.4 71 2.4 NNE 13 17 7 9 1023.1 - 0.0
21/01:30pm 11.5 8.3 6.9 73 2.2 NNE 13 19 7 10 1023.3 1023.5 0.0
21/01:00pm 11.4 7.7 6.5 72 2.3 NNE 15 19 8 10 1023.6 - 0.0
21/12:30pm 11.5 8.2 6.4 71 2.4 NNE 13 19 7 10 1024.0 1024.1 0.0
21/12:00pm 10.8 7.1 6.1 73 2.2 NNE 15 20 8 11 1024.4 1024.5 0.0
21/11:30am 10.4 6.7 6.3 76 1.9 N 15 22 8 12 1024.8 1024.9 0.0
21/11:00am 9.5 5.7 6.0 79 1.6 N 15 19 8 10 1025.1 - 0.0
21/10:30am 9.0 5.3 6.2 82 1.3 NNE 15 20 8 11 1025.5 1025.6 0.0
21/10:00am 8.1 4.3 5.7 85 1.1 NNE 15 19 8 10 1025.7 - 0.0
21/09:30am 7.3 4.2 5.5 88 0.8 NE 11 19 6 10 1025.6 1025.7 0.0
21/09:00am 6.5 3.3 5.1 91 0.6 NE 11 15 6 8 1025.6 1025.7 0.0
21/08:30am 5.7 2.4 4.8 94 0.4 NNE 11 15 6 8 1025.5 1025.6 0.0
21/08:00am 4.7 1.7 4.0 95 0.3 NNE 9 13 5 7 1025.4 - 0.0
21/07:30am 3.7 0.9 3.0 95 0.3 ENE 7 9 4 5 1025.3 1025.4 0.0
21/07:00am 3.9 1.1 3.4 97 0.2 E 7 11 4 6 1025.0 - 0.0
21/06:30am 3.7 0.5 3.2 97 0.2 ESE 9 11 5 6 1024.9 1025.0 0.0
21/06:00am 3.6 0.8 3.1 97 0.2 ENE 7 7 4 4 1025.0 1025.1 0.0
21/05:30am 3.4 0.7 2.9 97 0.2 NNE 6 7 3 4 1025.0 1025.1 0.0
21/05:00am 3.6 0.8 3.1 97 0.2 E 7 9 4 5 1024.6 - 0.0
21/04:30am 4.0 1.2 3.3 95 0.3 ESE 7 9 4 5 1024.5 1024.6 0.0
21/04:00am 3.9 1.7 3.4 97 0.2 E 4 6 2 3 1024.7 - 0.0
21/03:30am 4.1 0.6 3.6 97 0.2 E 11 13 6 7 1024.6 1024.7 0.0
21/03:00am 3.5 0.7 3.0 97 0.2 SE 7 11 4 6 1024.8 1024.9 0.0
21/02:30am 3.4 1.8 2.6 94 0.3 CALM 0 6 0 3 1025.1 1025.2 0.0
21/02:00am 4.0 0.5 3.3 95 0.3 E 11 13 6 7 1025.0 - 0.0
21/01:30am 4.1 0.6 3.4 95 0.3 E 11 13 6 7 1025.4 1025.5 0.0
21/01:00am 4.0 0.5 3.3 95 0.3 E 11 11 6 6 1025.5 - 0.0
21/12:30am 4.1 0.2 3.4 95 0.3 ENE 13 13 7 7 1025.9 1026.0 0.0
21/12:00am 4.6 1.1 3.6 93 0.4 E 11 13 6 7 1026.0 1026.1 0.0
 
Date/Time
CST
Temp
°C
App
Temp
°C
Dew
Point
Rel
Hum
%
Delta-T
°C
Wind Press
QNH
hPa
Press
MSL
hPa
Rain
since 9 am
mm
Dir
 
Spd
km/h
Gust
km/h
Spd
kts
Gust
kts
20/11:30pm 4.5 1.8 3.8 95 0.3 E 7 11 4 6 1026.2 1026.3 0.0
20/11:00pm 4.5 1.4 3.5 93 0.4 ENE 9 11 5 6 1026.3 - 0.0
20/10:30pm 3.9 0.7 3.2 95 0.3 ENE 9 11 5 6 1026.3 1026.4 0.0
20/10:00pm 4.7 2.2 3.5 92 0.5 ENE 6 7 3 4 1026.4 - 0.0
20/09:30pm 5.5 2.5 4.1 91 0.6 ENE 9 11 5 6 1026.3 1026.4 0.0
20/09:00pm 6.1 3.2 4.7 91 0.6 E 9 11 5 6 1026.2 1026.3 0.0
20/08:30pm 6.5 3.6 4.9 89 0.7 E 9 9 5 5 1026.4 1026.5 0.0
20/08:00pm 6.7 3.9 5.3 91 0.6 ESE 9 11 5 6 1026.5 - 0.0
20/07:30pm 7.2 4.5 5.6 89 0.7 ESE 9 9 5 5 1026.6 1026.7 0.0
20/07:00pm 7.4 5.1 5.6 88 0.8 ESE 7 9 4 5 1026.6 - 0.0
20/06:30pm 7.8 5.0 5.3 84 1.1 ENE 9 11 5 6 1026.3 1026.4 0.0
20/06:00pm 8.1 5.7 5.2 82 1.3 NE 7 9 4 5 1026.2 1026.3 0.0
20/05:30pm 8.8 6.0 5.0 77 1.7 NNE 9 11 5 6 1026.1 1026.2 0.0
20/05:00pm 9.4 7.1 4.9 73 2.0 NNE 6 7 3 4 1026.1 - 0.0
20/04:30pm 10.0 7.6 5.4 73 2.1 NNE 7 9 4 5 1026.2 1026.3 0.0
20/04:00pm 10.7 8.2 4.9 67 2.6 NNE 7 9 4 5 1026.2 - 0.0
20/03:30pm 11.3 9.3 4.6 63 3.0 N 4 9 2 5 1026.3 1026.4 0.0

Other Formats:

Comma delimited format used in spreadsheet applications
http://www.bom.gov.au/fwo/IDS60801/IDS60801.94817.axf

JavaScript Object Notation format (JSON) in row-major order
http://www.bom.gov.au/fwo/IDS60801/IDS60801.94817.json